createdAt,value
2022-11-23T00:01:31.213Z,15.13
2022-11-23T00:04:02.619Z,14.18
2022-11-23T00:06:30.648Z,14.13
2022-11-23T00:08:58.023Z,14.77
2022-11-23T00:11:27.529Z,12.15
2022-11-23T00:13:55.622Z,14.13
2022-11-23T00:16:26.125Z,14.15
2022-11-23T00:18:59.284Z,11.82
2022-11-23T00:21:29.344Z,14.23
2022-11-23T00:23:56.750Z,12.35
2022-11-23T00:26:24.230Z,12.30
2022-11-23T00:28:51.357Z,12.10
2022-11-23T00:31:21.246Z,12.48
2022-11-23T00:33:55.735Z,11.43
2022-11-23T00:36:24.763Z,14.00
2022-11-23T00:38:54.605Z,14.07
2022-11-23T00:41:25.049Z,15.10
2022-11-23T00:43:52.371Z,15.35
2022-11-23T00:46:23.343Z,14.07
2022-11-23T00:48:52.602Z,14.23
2022-11-23T00:51:26.910Z,13.57
2022-11-23T00:53:54.324Z,15.05
2022-11-23T00:56:24.339Z,15.30
2022-11-23T00:58:56.910Z,17.58
2022-11-23T01:01:30.924Z,13.45
2022-11-23T01:04:00.378Z,12.98
2022-11-23T01:06:37.009Z,15.20
2022-11-23T01:09:18.006Z,13.35
2022-11-23T01:11:45.676Z,12.88
2022-11-23T01:14:13.128Z,12.55
2022-11-23T01:16:41.902Z,12.98
2022-11-23T01:19:16.600Z,14.20
2022-11-23T01:21:44.678Z,13.00
2022-11-23T01:24:21.887Z,11.63
2022-11-23T01:26:54.026Z,11.90
2022-11-23T01:29:22.968Z,14.15
2022-11-23T01:31:50.282Z,15.85
2022-11-23T01:34:17.769Z,15.45
2022-11-23T01:36:45.739Z,14.68
2022-11-23T01:39:14.003Z,11.40
2022-11-23T01:41:44.570Z,12.35
2022-11-23T01:44:41.728Z,11.82
2022-11-23T01:47:10.861Z,11.00
2022-11-23T01:49:51.712Z,10.60
2022-11-23T01:52:23.979Z,11.10
2022-11-23T01:54:56.181Z,11.43
2022-11-23T01:57:32.966Z,12.02
2022-11-23T02:00:01.373Z,12.55
2022-11-23T02:02:46.882Z,12.65
2022-11-23T02:05:19.099Z,11.23
2022-11-23T02:07:49.500Z,12.02
2022-11-23T02:10:17.455Z,9.45
2022-11-23T02:12:44.625Z,11.20
2022-11-23T02:15:12.945Z,12.02
2022-11-23T02:17:43.359Z,11.95
2022-11-23T02:20:14.670Z,10.27
2022-11-23T02:23:15.714Z,11.77
2022-11-23T02:25:45.672Z,12.77
2022-11-23T02:28:17.880Z,11.80
2022-11-23T02:30:47.649Z,11.10
2022-11-23T02:33:14.691Z,11.35
2022-11-23T02:35:54.863Z,13.02
2022-11-23T02:38:26.550Z,11.15
2022-11-23T02:40:53.655Z,9.45
2022-11-23T02:43:22.998Z,11.82
2022-11-23T02:45:54.869Z,9.80
2022-11-23T02:48:25.849Z,10.65
2022-11-23T02:50:53.078Z,13.13
2022-11-23T02:53:20.253Z,11.30
2022-11-23T02:55:47.626Z,13.18
2022-11-23T02:58:14.804Z,15.30
2022-11-23T03:00:42.385Z,11.73
2022-11-23T03:03:09.697Z,15.32
2022-11-23T03:05:36.837Z,14.27
2022-11-23T03:08:06.834Z,14.68
2022-11-23T03:10:35.822Z,12.35
2022-11-23T03:13:03.045Z,15.30
2022-11-23T03:15:34.134Z,16.73
2022-11-23T03:18:03.940Z,18.67
2022-11-23T03:20:31.968Z,17.55
2022-11-23T03:22:59.205Z,16.48
2022-11-23T03:25:27.255Z,15.00
2022-11-23T03:27:56.757Z,18.45
2022-11-23T03:30:23.884Z,19.67
2022-11-23T03:32:51.135Z,16.15
2022-11-23T03:35:19.549Z,19.35
2022-11-23T03:38:06.518Z,15.70
2022-11-23T03:40:33.996Z,16.85
2022-11-23T03:43:22.582Z,18.10
2022-11-23T03:45:49.779Z,16.20
2022-11-23T03:48:17.546Z,20.65
2022-11-23T03:50:45.803Z,20.52
2022-11-23T03:53:13.134Z,18.50
2022-11-23T03:55:40.346Z,20.05
2022-11-23T03:58:07.456Z,21.30
2022-11-23T04:00:36.162Z,20.15
2022-11-23T04:03:04.450Z,19.38
2022-11-23T04:05:51.621Z,19.55
2022-11-23T04:08:57.432Z,20.15
2022-11-23T04:11:42.865Z,20.33
2022-11-23T04:14:10.224Z,22.77
2022-11-23T04:16:37.338Z,22.40
2022-11-23T04:19:04.534Z,21.25
2022-11-23T04:21:31.685Z,21.90
2022-11-23T04:23:59.047Z,20.77
2022-11-23T04:26:27.482Z,24.42
2022-11-23T04:28:54.877Z,23.95
2022-11-23T04:31:22.419Z,24.20
2022-11-23T04:33:57.223Z,23.13
2022-11-23T04:36:25.871Z,24.75
2022-11-23T04:38:53.408Z,21.63
2022-11-23T04:41:27.040Z,21.65
2022-11-23T04:43:54.300Z,25.30
2022-11-23T04:46:23.053Z,21.65
2022-11-23T04:48:50.179Z,22.90
2022-11-23T04:51:18.268Z,22.33
2022-11-23T04:53:46.417Z,22.38
2022-11-23T04:56:14.572Z,25.23
2022-11-23T04:58:43.067Z,21.88
2022-11-23T05:01:10.881Z,22.40
2022-11-23T05:03:52.237Z,20.88
2022-11-23T05:06:20.758Z,23.55
2022-11-23T05:08:47.923Z,24.15
2022-11-23T05:11:33.883Z,26.13
2022-11-23T05:14:02.471Z,24.60
2022-11-23T05:16:30.781Z,25.23
2022-11-23T05:18:58.981Z,23.00
2022-11-23T05:21:26.867Z,20.75
2022-11-23T05:23:55.130Z,24.17
2022-11-23T05:26:22.369Z,22.70
2022-11-23T05:28:49.514Z,21.38
2022-11-23T05:31:16.603Z,19.95
2022-11-23T05:33:46.442Z,22.38
2022-11-23T05:36:15.875Z,20.58
2022-11-23T05:38:42.965Z,17.50
2022-11-23T05:41:19.843Z,20.20
2022-11-23T05:43:49.550Z,17.42
2022-11-23T05:46:22.244Z,20.17
2022-11-23T05:48:49.296Z,19.10
2022-11-23T05:51:16.445Z,18.70
2022-11-23T05:53:45.505Z,21.20
2022-11-23T05:56:20.378Z,17.95
2022-11-23T05:59:05.435Z,19.55
2022-11-23T06:01:35.589Z,18.60
2022-11-23T06:04:06.723Z,18.90
2022-11-23T06:06:39.407Z,15.13
2022-11-23T06:09:06.737Z,16.20
2022-11-23T06:11:36.125Z,16.73
2022-11-23T06:14:14.027Z,19.02
2022-11-23T06:16:44.410Z,15.95
2022-11-23T06:19:26.010Z,15.18
2022-11-23T06:21:54.235Z,17.13
2022-11-23T06:24:24.389Z,17.35
2022-11-23T06:27:16.617Z,18.17
2022-11-23T06:29:45.137Z,17.80
2022-11-23T06:32:13.317Z,18.38
2022-11-23T06:34:40.490Z,11.80
2022-11-23T06:37:07.583Z,14.15
2022-11-23T06:39:35.797Z,16.42
2022-11-23T06:42:23.738Z,17.27
2022-11-23T06:44:52.517Z,15.15
2022-11-23T06:47:26.038Z,17.00
2022-11-23T06:49:54.262Z,15.43
2022-11-23T06:52:27.246Z,18.10
2022-11-23T06:54:55.061Z,14.32
2022-11-23T06:57:24.436Z,16.52
2022-11-23T06:59:51.874Z,13.52
2022-11-23T07:02:24.802Z,16.40
2022-11-23T07:04:54.605Z,14.52
2022-11-23T07:07:21.835Z,17.38
2022-11-23T07:09:57.809Z,14.98
2022-11-23T07:12:40.865Z,18.45
2022-11-23T07:15:09.392Z,17.85
2022-11-23T07:17:44.615Z,17.38
2022-11-23T07:20:13.158Z,16.27
2022-11-23T07:22:40.527Z,16.80
2022-11-23T07:25:08.394Z,12.40
2022-11-23T07:27:35.503Z,16.20
2022-11-23T07:30:03.732Z,18.40
2022-11-23T07:32:30.972Z,17.67
2022-11-23T07:34:58.064Z,12.65
2022-11-23T07:37:26.907Z,12.00
2022-11-23T07:39:57.709Z,15.90
2022-11-23T07:42:39.889Z,16.02
2022-11-23T07:45:10.811Z,16.58
2022-11-23T07:47:40.570Z,16.80
2022-11-23T07:50:10.372Z,15.40
2022-11-23T07:52:38.096Z,16.52
2022-11-23T07:55:06.265Z,16.50
2022-11-23T07:57:33.330Z,15.48
2022-11-23T08:00:00.454Z,14.02
2022-11-23T08:02:27.669Z,14.90
2022-11-23T08:04:55.633Z,14.85
2022-11-23T08:07:22.901Z,15.30
2022-11-23T08:09:50.530Z,12.07
2022-11-23T08:12:17.611Z,12.82
2022-11-23T08:14:44.791Z,13.68
2022-11-23T08:17:11.938Z,17.35
2022-11-23T08:19:38.984Z,16.85
2022-11-23T08:22:06.191Z,16.63
2022-11-23T08:24:33.771Z,16.58
2022-11-23T08:27:01.179Z,14.93
2022-11-23T08:29:28.387Z,15.13
2022-11-23T08:31:55.518Z,15.25
2022-11-23T08:34:22.577Z,19.75
2022-11-23T08:36:49.640Z,13.15
2022-11-23T08:39:18.374Z,13.85
2022-11-23T08:41:46.023Z,18.58
2022-11-23T08:44:13.327Z,15.73
2022-11-23T08:46:40.452Z,14.10
2022-11-23T08:49:07.859Z,11.85
2022-11-23T08:51:35.374Z,15.73
2022-11-23T08:54:02.504Z,17.63
2022-11-23T08:56:29.623Z,14.77
2022-11-23T08:58:56.847Z,15.52
2022-11-23T09:01:24.108Z,12.27
2022-11-23T09:03:51.215Z,13.80
2022-11-23T09:06:18.265Z,14.35
2022-11-23T09:08:45.482Z,13.43
2022-11-23T09:11:14.270Z,14.45
2022-11-23T09:13:41.520Z,13.25
2022-11-23T09:16:09.786Z,15.40
2022-11-23T09:18:36.837Z,13.25
2022-11-23T09:21:05.848Z,14.50
2022-11-23T09:23:33.389Z,16.55
2022-11-23T09:26:05.318Z,15.35
2022-11-23T09:28:33.663Z,14.20
2022-11-23T09:31:04.627Z,16.95
2022-11-23T09:33:31.744Z,15.18
2022-11-23T09:36:04.126Z,15.88
2022-11-23T09:38:55.659Z,14.05
2022-11-23T09:41:52.628Z,16.80
2022-11-23T09:44:25.503Z,14.60
2022-11-23T09:47:16.482Z,19.38
2022-11-23T09:50:03.212Z,17.75
2022-11-23T09:52:31.443Z,15.88
2022-11-23T09:55:04.713Z,15.18
2022-11-23T09:57:34.543Z,18.20
2022-11-23T10:00:12.243Z,18.73
2022-11-23T10:02:41.236Z,19.00
2022-11-23T10:05:21.735Z,14.70
2022-11-23T10:08:19.478Z,16.23
2022-11-23T10:10:59.581Z,12.40
2022-11-23T10:13:45.722Z,15.77
2022-11-23T10:16:36.682Z,13.63
2022-11-23T10:19:17.576Z,12.50
2022-11-23T10:22:08.662Z,12.48
2022-11-23T10:24:44.634Z,15.05
2022-11-23T10:27:18.562Z,14.98
2022-11-23T10:29:46.177Z,14.55
2022-11-23T10:32:45.832Z,12.93
2022-11-23T10:35:17.479Z,15.48
2022-11-23T10:37:44.652Z,15.95
2022-11-23T10:40:29.469Z,14.40
2022-11-23T10:43:07.422Z,12.90
2022-11-23T10:45:34.513Z,16.42
2022-11-23T10:48:01.669Z,13.32
2022-11-23T10:50:37.446Z,15.30
2022-11-23T10:53:23.225Z,15.80
2022-11-23T10:55:58.046Z,14.52
2022-11-23T10:58:44.754Z,16.80
2022-11-23T11:01:32.873Z,16.67
2022-11-23T11:04:04.625Z,15.55
2022-11-23T11:06:36.110Z,14.88
2022-11-23T11:09:20.497Z,15.65
2022-11-23T11:11:52.187Z,16.33
2022-11-23T11:14:24.934Z,12.20
2022-11-23T11:16:55.321Z,16.25
2022-11-23T11:19:33.796Z,14.38
2022-11-23T11:22:26.060Z,13.80
2022-11-23T11:24:53.662Z,13.90
2022-11-23T11:27:23.402Z,15.80
2022-11-23T11:29:52.256Z,11.50
2022-11-23T11:32:45.902Z,14.82
2022-11-23T11:35:27.738Z,14.38
2022-11-23T11:38:08.765Z,13.80
2022-11-23T11:40:51.750Z,12.00
2022-11-23T11:43:43.399Z,16.92
2022-11-23T11:46:29.948Z,13.43
2022-11-23T11:49:13.849Z,11.90
2022-11-23T11:51:55.489Z,12.40
2022-11-23T11:54:40.672Z,11.27
2022-11-23T11:57:19.671Z,13.20
2022-11-23T11:59:52.782Z,16.38
2022-11-23T12:02:29.594Z,11.63
2022-11-23T12:05:18.277Z,16.20
2022-11-23T12:08:40.830Z,14.43
2022-11-23T12:11:11.929Z,11.15
2022-11-23T12:14:03.061Z,10.05
2022-11-23T12:17:10.239Z,8.70
2022-11-23T12:20:11.846Z,12.88
2022-11-23T12:23:54.610Z,10.85
2022-11-23T12:26:45.291Z,12.05
2022-11-23T12:30:11.515Z,11.80
2022-11-23T12:33:06.700Z,11.90
2022-11-23T12:35:46.770Z,11.23
2022-11-23T12:38:44.935Z,10.48
2022-11-23T12:41:52.396Z,12.13
2022-11-23T12:44:28.858Z,10.27
2022-11-23T12:47:21.980Z,13.32
2022-11-23T12:49:55.543Z,10.63
2022-11-23T12:53:06.085Z,11.57
2022-11-23T12:55:48.111Z,8.55
2022-11-23T12:58:29.633Z,11.93
2022-11-23T13:01:10.696Z,8.70
2022-11-23T13:03:56.066Z,9.18
2022-11-23T13:06:33.054Z,10.80
2022-11-23T13:09:24.600Z,11.95
2022-11-23T13:12:18.650Z,11.70
2022-11-23T13:15:24.458Z,11.23
2022-11-23T13:18:12.834Z,10.05
2022-11-23T13:21:08.139Z,7.88
2022-11-23T13:23:39.615Z,8.65
2022-11-23T13:26:19.772Z,11.93
2022-11-23T13:28:59.213Z,8.90
2022-11-23T13:31:32.022Z,9.48
2022-11-23T13:34:41.338Z,11.20
2022-11-23T13:37:12.938Z,9.18
2022-11-23T13:39:58.428Z,8.98
2022-11-23T13:42:27.060Z,7.95
2022-11-23T13:45:20.277Z,9.25
2022-11-23T13:48:09.248Z,9.60
2022-11-23T13:50:47.740Z,9.48
2022-11-23T13:53:26.866Z,10.57
2022-11-23T13:55:58.214Z,8.80
2022-11-23T13:58:25.508Z,8.48
2022-11-23T14:00:59.967Z,8.55
2022-11-23T14:03:50.064Z,9.73
2022-11-23T14:06:26.005Z,10.77
2022-11-23T14:09:06.943Z,11.20
2022-11-23T14:12:03.174Z,7.68
2022-11-23T14:15:03.882Z,10.25
2022-11-23T14:17:33.593Z,7.15
2022-11-23T14:20:06.150Z,9.90
2022-11-23T14:22:54.138Z,9.73
2022-11-23T14:25:32.906Z,10.07
2022-11-23T14:28:06.350Z,7.50
2022-11-23T14:30:55.085Z,9.18
2022-11-23T14:34:00.353Z,7.18
2022-11-23T14:36:41.633Z,8.13
2022-11-23T14:39:46.254Z,7.22
2022-11-23T14:42:22.194Z,7.07
2022-11-23T14:44:51.002Z,8.70
2022-11-23T14:47:27.775Z,9.93
2022-11-23T14:49:55.662Z,10.63
2022-11-23T14:52:25.108Z,7.93
2022-11-23T14:54:55.786Z,9.73
2022-11-23T14:57:37.941Z,9.40
2022-11-23T15:00:11.516Z,12.15
2022-11-23T15:02:41.284Z,12.02
2022-11-23T15:05:33.019Z,8.48
2022-11-23T15:08:17.571Z,10.00
2022-11-23T15:10:59.722Z,9.60
2022-11-23T15:13:41.947Z,9.82
2022-11-23T15:16:12.529Z,9.88
2022-11-23T15:18:39.872Z,10.02
2022-11-23T15:21:10.047Z,10.80
2022-11-23T15:23:51.691Z,9.65
2022-11-23T15:26:46.866Z,12.20
2022-11-23T15:29:38.246Z,8.75
2022-11-23T15:32:32.052Z,9.88
2022-11-23T15:35:07.833Z,9.02
2022-11-23T15:37:46.288Z,10.07
2022-11-23T15:40:16.568Z,10.73
2022-11-23T15:42:49.723Z,7.43
2022-11-23T15:45:45.993Z,9.48
2022-11-23T15:48:18.432Z,10.20
2022-11-23T15:50:53.759Z,8.65
2022-11-23T15:53:26.252Z,11.48
2022-11-23T15:55:57.558Z,7.57
2022-11-23T15:58:24.954Z,7.72
2022-11-23T16:01:12.885Z,8.73
2022-11-23T16:03:41.768Z,10.27
2022-11-23T16:06:11.699Z,8.23
2022-11-23T16:08:40.758Z,8.98
2022-11-23T16:11:30.038Z,6.50
2022-11-23T16:14:20.831Z,10.02
2022-11-23T16:17:19.425Z,7.43
2022-11-23T16:19:49.267Z,10.20
2022-11-23T16:22:36.662Z,9.20
2022-11-23T16:25:35.394Z,11.23
2022-11-23T16:28:36.787Z,10.27
2022-11-23T16:31:04.211Z,7.97
2022-11-23T16:33:31.477Z,9.50
2022-11-23T16:35:58.615Z,8.20
2022-11-23T16:38:25.927Z,9.00
2022-11-23T16:40:53.173Z,6.70
2022-11-23T16:43:20.374Z,8.90
2022-11-23T16:45:50.653Z,10.40
2022-11-23T16:48:27.043Z,7.57
2022-11-23T16:50:57.093Z,7.68
2022-11-23T16:53:30.183Z,9.73
2022-11-23T16:55:58.650Z,9.63
2022-11-23T16:58:30.612Z,11.90
2022-11-23T17:00:57.815Z,9.05
2022-11-23T17:03:25.064Z,8.93
2022-11-23T17:05:52.165Z,8.35
2022-11-23T17:08:23.683Z,8.63
2022-11-23T17:10:51.690Z,8.90
2022-11-23T17:13:28.926Z,8.57
2022-11-23T17:15:56.543Z,10.88
2022-11-23T17:18:23.665Z,7.38
2022-11-23T17:20:50.714Z,9.20
2022-11-23T17:23:18.223Z,8.77
2022-11-23T17:25:45.342Z,9.10
2022-11-23T17:28:21.422Z,8.73
2022-11-23T17:33:17.012Z,9.38
2022-11-23T17:35:44.078Z,8.63
2022-11-23T17:38:17.435Z,10.77
2022-11-23T17:40:44.581Z,8.15
2022-11-23T17:43:14.434Z,8.15
2022-11-23T17:45:42.767Z,9.02
2022-11-23T17:48:15.115Z,10.73
2022-11-23T17:50:42.234Z,9.05
2022-11-23T17:53:10.581Z,11.45
2022-11-23T17:55:37.997Z,8.20
2022-11-23T17:58:05.830Z,9.43
2022-11-23T18:00:35.036Z,9.35
2022-11-23T18:03:02.463Z,8.90
2022-11-23T18:05:30.063Z,8.80
2022-11-23T18:07:57.169Z,8.25
2022-11-23T18:10:24.423Z,9.23
2022-11-23T18:12:51.468Z,10.70
2022-11-23T18:15:18.651Z,12.43
2022-11-23T18:17:45.855Z,8.50
2022-11-23T18:20:13.375Z,8.95
2022-11-23T18:22:40.476Z,9.10
2022-11-23T18:25:08.065Z,8.00
2022-11-23T18:27:35.174Z,8.63
2022-11-23T18:30:02.410Z,10.25
2022-11-23T18:32:29.534Z,9.10
2022-11-23T18:34:57.056Z,8.38
2022-11-23T18:37:24.197Z,8.90
2022-11-23T18:39:51.808Z,10.80
2022-11-23T18:42:20.048Z,8.95
2022-11-23T18:44:47.137Z,7.50
2022-11-23T18:47:14.232Z,9.00
2022-11-23T18:49:41.269Z,9.75
2022-11-23T18:52:09.125Z,9.55
2022-11-23T18:54:36.470Z,10.52
2022-11-23T18:57:06.446Z,9.25
2022-11-23T19:02:20.600Z,10.02
2022-11-23T19:04:47.670Z,11.55
2022-11-23T19:07:14.779Z,9.77
2022-11-23T19:09:42.065Z,9.80
2022-11-23T19:12:09.833Z,10.90
2022-11-23T19:14:36.963Z,8.80
2022-11-23T19:17:04.028Z,12.43
2022-11-23T19:19:31.203Z,9.45
2022-11-23T19:21:58.657Z,8.82
2022-11-23T19:24:25.766Z,10.50
2022-11-23T19:26:52.857Z,12.32
2022-11-23T19:29:23.769Z,10.35
2022-11-23T19:31:54.544Z,8.63
2022-11-23T19:34:21.965Z,9.18
2022-11-23T19:36:49.143Z,9.35
2022-11-23T19:39:16.354Z,10.85
2022-11-23T19:41:43.598Z,9.77
2022-11-23T19:44:10.680Z,8.95
2022-11-23T19:46:38.878Z,9.23
2022-11-23T19:49:07.011Z,10.30
2022-11-23T19:51:34.588Z,10.02
2022-11-23T19:54:02.182Z,9.55
2022-11-23T19:56:29.945Z,10.30
2022-11-23T19:58:59.909Z,9.05
2022-11-23T20:01:33.493Z,14.63
2022-11-23T20:04:08.835Z,9.93
2022-11-23T20:06:39.376Z,11.32
2022-11-23T20:09:19.396Z,10.43
2022-11-23T20:11:50.608Z,10.20
2022-11-23T20:14:18.514Z,14.43
2022-11-23T20:16:45.698Z,8.52
2022-11-23T20:19:12.737Z,15.15
2022-11-23T20:21:39.921Z,11.32
2022-11-23T20:24:12.698Z,9.63
2022-11-23T20:26:41.222Z,13.25
2022-11-23T20:29:09.150Z,10.10
2022-11-23T20:31:38.318Z,14.82
2022-11-23T20:34:08.103Z,14.85
2022-11-23T20:36:38.114Z,12.35
2022-11-23T20:39:09.550Z,12.90
2022-11-23T20:41:37.685Z,11.88
2022-11-23T20:44:11.917Z,10.02
2022-11-23T20:49:26.480Z,11.65
2022-11-23T20:51:53.586Z,15.13
2022-11-23T20:54:20.686Z,12.90
2022-11-23T20:56:47.791Z,11.93
2022-11-23T20:59:15.122Z,16.35
2022-11-23T21:01:42.308Z,13.18
2022-11-23T21:04:09.422Z,12.82
2022-11-23T21:06:39.287Z,11.60
2022-11-23T21:09:08.770Z,14.68
2022-11-23T21:11:54.443Z,15.63
2022-11-23T21:14:24.646Z,12.73
2022-11-23T21:17:01.019Z,14.07
2022-11-23T21:19:34.639Z,13.18
2022-11-23T21:22:08.231Z,12.73
2022-11-23T21:24:36.051Z,14.13
2022-11-23T21:27:06.470Z,14.25
2022-11-23T21:29:33.841Z,15.65
2022-11-23T21:32:03.649Z,13.90
2022-11-23T21:34:31.232Z,13.70
2022-11-23T21:36:58.928Z,15.60
2022-11-23T21:39:26.248Z,16.23
2022-11-23T21:41:54.262Z,14.48
2022-11-23T21:44:24.823Z,16.55
2022-11-23T21:46:52.259Z,15.20
2022-11-23T21:49:19.517Z,16.17
2022-11-23T21:51:47.112Z,15.48
2022-11-23T21:54:15.692Z,15.60
2022-11-23T21:56:45.341Z,18.27
2022-11-23T21:59:13.358Z,16.95
2022-11-23T22:01:41.823Z,15.60
2022-11-23T22:04:13.161Z,16.67
2022-11-23T22:06:42.137Z,19.13
2022-11-23T22:09:11.097Z,15.05
2022-11-23T22:11:41.536Z,18.48
2022-11-23T22:14:15.420Z,16.38
2022-11-23T22:16:46.025Z,14.70
2022-11-23T22:19:15.420Z,16.38
2022-11-23T22:21:44.285Z,16.20
2022-11-23T22:24:14.379Z,16.33
2022-11-23T22:26:43.880Z,15.55
2022-11-23T22:29:12.553Z,17.25
2022-11-23T22:31:40.557Z,17.73
2022-11-23T22:34:11.518Z,17.23
2022-11-23T22:36:39.060Z,17.45
2022-11-23T22:39:07.711Z,17.27
2022-11-23T22:41:37.320Z,18.17
2022-11-23T22:44:07.591Z,17.92
2022-11-23T22:46:35.419Z,18.00
2022-11-23T22:49:03.009Z,16.20
2022-11-23T22:51:30.517Z,17.77
2022-11-23T22:53:59.752Z,16.85
2022-11-23T22:56:30.485Z,17.05
2022-11-23T22:58:59.282Z,17.27
2022-11-23T23:01:33.560Z,16.33
2022-11-23T23:04:02.985Z,17.00
2022-11-23T23:06:34.686Z,15.98
2022-11-23T23:09:05.322Z,17.08
2022-11-23T23:11:34.433Z,17.20
2022-11-23T23:14:01.587Z,15.70
2022-11-23T23:16:30.350Z,18.15
2022-11-23T23:18:58.407Z,19.48
2022-11-23T23:21:27.594Z,16.40
2022-11-23T23:23:58.206Z,16.83
2022-11-23T23:26:27.243Z,17.90
2022-11-23T23:28:59.677Z,17.33
2022-11-23T23:31:29.082Z,17.92
2022-11-23T23:33:57.111Z,19.20
2022-11-23T23:36:24.539Z,17.27
2022-11-23T23:38:52.002Z,16.63
2022-11-23T23:41:19.462Z,20.02
2022-11-23T23:43:48.171Z,20.05
2022-11-23T23:46:16.648Z,17.25
2022-11-23T23:48:44.127Z,14.23
2022-11-23T23:51:15.164Z,18.95
2022-11-23T23:53:43.870Z,18.73
2022-11-23T23:56:17.560Z,17.42
2022-11-23T23:58:45.349Z,14.93
